createdAt,value
2023-01-17T12:24:49.968Z,3.24
2023-01-17T12:25:50.038Z,3.28
2023-01-17T12:26:50.210Z,3.14
2023-01-17T12:27:50.053Z,2.89
2023-01-17T12:28:50.244Z,3.10
2023-01-17T12:29:49.799Z,3.05
2023-01-17T12:30:49.728Z,4.05
2023-01-17T12:31:49.706Z,4.82
2023-01-17T12:32:49.707Z,4.24
2023-01-17T12:33:49.681Z,4.24
2023-01-17T12:34:49.697Z,4.14
2023-01-17T12:35:49.645Z,3.97
2023-01-17T12:36:49.769Z,5.54
2023-01-17T12:38:03.801Z,4.65
2023-01-17T12:38:49.642Z,3.75
2023-01-17T12:39:49.644Z,3.29
2023-01-17T12:40:49.625Z,2.96
2023-01-17T12:41:49.616Z,2.74
2023-01-17T12:42:49.561Z,2.46
2023-01-17T12:43:49.572Z,2.31
2023-01-17T12:44:49.582Z,2.63
2023-01-17T12:45:49.531Z,2.72
2023-01-17T12:46:49.589Z,2.75
2023-01-17T12:47:49.498Z,2.72
2023-01-17T12:48:49.534Z,2.74
2023-01-17T12:49:49.520Z,2.87
2023-01-17T12:50:49.502Z,2.99
2023-01-17T12:51:49.497Z,3.06
2023-01-17T12:52:49.528Z,3.05
2023-01-17T12:53:49.451Z,3.08
2023-01-17T12:54:49.484Z,3.08
2023-01-17T12:55:49.469Z,3.05
2023-01-17T12:56:49.492Z,3.06
2023-01-17T12:57:49.423Z,3.15
2023-01-17T12:58:49.373Z,3.29
2023-01-17T12:59:49.415Z,3.29
2023-01-17T13:00:49.470Z,3.21
2023-01-17T13:01:49.455Z,3.33
2023-01-17T13:02:49.387Z,3.43
2023-01-17T13:03:49.520Z,3.60
2023-01-17T13:04:58.395Z,4.59
2023-01-17T13:05:49.285Z,6.46
2023-01-17T13:06:49.315Z,7.25
2023-01-17T13:07:49.264Z,6.91
2023-01-17T13:08:49.253Z,8.28
2023-01-17T13:09:50.144Z,9.43
2023-01-17T13:10:49.227Z,10.45
2023-01-17T13:11:49.211Z,10.61
2023-01-17T13:12:49.237Z,11.14
2023-01-17T13:13:49.190Z,11.19
2023-01-17T13:14:49.185Z,11.47
2023-01-17T13:15:49.270Z,11.11
2023-01-17T13:16:49.154Z,11.64
2023-01-17T13:17:49.186Z,11.64
2023-01-17T13:18:49.148Z,12.13
2023-01-17T13:19:49.119Z,11.69
2023-01-17T13:20:49.116Z,12.23
2023-01-17T13:21:49.105Z,12.16
2023-01-17T13:22:50.770Z,11.85
2023-01-17T13:23:49.069Z,12.02
2023-01-17T13:24:49.063Z,12.17
2023-01-17T13:25:49.077Z,12.35
2023-01-17T13:26:49.053Z,11.90
2023-01-17T13:27:49.028Z,12.83
2023-01-17T13:28:49.030Z,12.68
2023-01-17T13:29:49.007Z,12.59
2023-01-17T13:30:49.065Z,13.32
2023-01-17T13:31:49.004Z,14.04
2023-01-17T13:32:48.958Z,14.40
2023-01-17T13:33:48.975Z,14.12
2023-01-17T13:34:48.944Z,14.61
2023-01-17T13:35:48.951Z,14.40
2023-01-17T13:36:48.990Z,14.27
2023-01-17T13:37:48.893Z,12.87
2023-01-17T13:38:48.904Z,13.07
2023-01-17T13:39:48.887Z,13.49
2023-01-17T13:40:48.863Z,14.60
2023-01-17T13:41:48.840Z,13.88
2023-01-17T13:42:48.888Z,13.36
2023-01-17T13:43:48.915Z,10.61
2023-01-17T13:44:48.901Z,10.55
2023-01-17T13:45:48.812Z,9.31
2023-01-17T13:46:49.094Z,8.12
2023-01-17T13:47:48.838Z,8.92
2023-01-17T13:48:48.767Z,9.97
2023-01-17T13:49:48.829Z,9.84
2023-01-17T13:50:48.754Z,9.78
2023-01-17T13:51:48.730Z,8.52
2023-01-17T13:52:48.723Z,8.77
2023-01-17T13:53:48.718Z,8.99
2023-01-17T13:54:48.770Z,8.19
2023-01-17T13:55:48.783Z,8.05
2023-01-17T13:56:48.860Z,7.95
2023-01-17T13:57:48.684Z,8.26
2023-01-17T13:58:50.765Z,7.79
2023-01-17T13:59:49.768Z,7.53
2023-01-17T14:00:50.946Z,8.25
2023-01-17T14:01:49.918Z,7.61
2023-01-17T14:02:53.703Z,8.30
2023-01-17T14:03:49.736Z,8.12
2023-01-17T14:04:49.894Z,8.59
2023-01-17T14:05:49.725Z,9.01
2023-01-17T14:06:49.702Z,7.80
2023-01-17T14:07:49.699Z,7.90
2023-01-17T14:08:49.715Z,8.66
2023-01-17T14:09:50.172Z,9.58
2023-01-17T14:10:49.732Z,9.94
2023-01-17T14:11:49.680Z,8.77
2023-01-17T14:12:49.601Z,9.75
2023-01-17T14:13:49.610Z,10.23
2023-01-17T14:14:49.612Z,10.61
2023-01-17T14:15:49.616Z,9.71
2023-01-17T14:16:49.605Z,9.32
2023-01-17T14:17:49.575Z,9.74
2023-01-17T14:18:49.771Z,10.18
2023-01-17T14:19:49.527Z,9.24
2023-01-17T14:20:49.546Z,9.26
2023-01-17T14:21:49.548Z,9.32
2023-01-17T14:22:49.712Z,9.96
2023-01-17T14:23:50.270Z,9.94
2023-01-17T14:24:50.290Z,10.30
2023-01-17T14:25:49.478Z,10.32
2023-01-17T14:26:49.488Z,9.83
2023-01-17T14:27:49.513Z,9.76
2023-01-17T14:28:50.099Z,9.94
2023-01-17T14:29:49.465Z,9.04
2023-01-17T14:30:49.443Z,8.77
2023-01-17T14:31:49.504Z,8.96
2023-01-17T14:32:49.408Z,8.50
2023-01-17T14:33:49.384Z,8.71
2023-01-17T14:34:49.360Z,8.77
2023-01-17T14:35:49.369Z,7.53
2023-01-17T14:36:49.357Z,7.64
2023-01-17T14:37:49.337Z,8.07
2023-01-17T14:38:49.322Z,8.48
2023-01-17T14:39:49.326Z,8.74
2023-01-17T14:40:49.306Z,8.99
2023-01-17T14:41:49.331Z,9.23
2023-01-17T14:42:49.258Z,8.44
2023-01-17T14:43:49.274Z,7.60
2023-01-17T14:44:49.213Z,7.17
2023-01-17T14:45:49.260Z,7.58
2023-01-17T14:46:49.244Z,8.16
2023-01-17T14:47:49.214Z,7.95
2023-01-17T14:48:49.242Z,7.05
2023-01-17T14:49:49.182Z,6.51
2023-01-17T14:50:49.245Z,6.01
2023-01-17T14:51:49.175Z,5.71
2023-01-17T14:52:49.166Z,5.68
2023-01-17T14:53:49.154Z,6.25
2023-01-17T14:54:49.146Z,6.25
2023-01-17T14:55:49.154Z,6.21
2023-01-17T14:56:49.102Z,5.42
2023-01-17T14:57:49.095Z,5.36
2023-01-17T14:58:49.060Z,5.58
2023-01-17T14:59:49.092Z,6.17
2023-01-17T15:00:49.166Z,6.64
2023-01-17T15:02:05.761Z,6.94
2023-01-17T15:02:50.222Z,7.05
2023-01-17T15:03:49.065Z,7.07
2023-01-17T15:04:49.021Z,6.48
2023-01-17T15:05:48.993Z,5.48
2023-01-17T15:06:49.010Z,4.80
2023-01-17T15:07:48.959Z,4.44
2023-01-17T15:08:48.974Z,4.33
2023-01-17T15:09:48.955Z,4.34
2023-01-17T15:10:48.934Z,4.42
2023-01-17T15:11:49.039Z,4.41
2023-01-17T15:12:48.923Z,4.05
2023-01-17T15:13:48.929Z,3.42
2023-01-17T15:14:48.875Z,3.08
2023-01-17T15:15:48.921Z,2.81
2023-01-17T15:16:48.916Z,2.75
2023-01-17T15:17:48.892Z,2.85
2023-01-17T15:18:48.881Z,2.74
2023-01-17T15:19:48.816Z,2.71
2023-01-17T15:20:48.828Z,2.75
2023-01-17T15:21:48.802Z,2.74
2023-01-17T15:22:48.834Z,2.56
2023-01-17T15:23:48.788Z,2.61
2023-01-17T15:24:48.800Z,2.77
2023-01-17T15:25:48.761Z,2.71
2023-01-17T15:26:48.737Z,2.66
2023-01-17T15:27:48.810Z,2.54
2023-01-17T15:28:48.705Z,2.66
2023-01-17T15:29:48.757Z,2.75
2023-01-17T15:30:51.344Z,2.79
2023-01-17T15:31:48.824Z,2.77
2023-01-17T15:32:48.677Z,2.63
2023-01-17T15:33:48.741Z,2.61
2023-01-17T15:34:48.723Z,2.53
2023-01-17T15:35:49.952Z,2.46
2023-01-17T15:39:41.199Z,2.17
2023-01-17T15:40:41.682Z,2.20
2023-01-17T15:41:40.332Z,2.17
2023-01-17T15:42:40.284Z,2.12
2023-01-17T15:43:40.393Z,2.10
2023-01-17T15:44:48.050Z,2.09
2023-01-17T15:45:40.287Z,2.00
2023-01-17T15:46:40.241Z,1.95
2023-01-17T15:47:40.268Z,2.12
2023-01-17T15:48:40.256Z,1.88
2023-01-17T15:49:40.282Z,1.93
2023-01-17T15:50:40.269Z,1.80
2023-01-17T15:51:40.270Z,1.69
2023-01-17T15:52:40.192Z,1.65
2023-01-17T15:53:40.398Z,1.58
2023-01-17T15:54:40.230Z,1.52
2023-01-17T15:55:41.007Z,1.48
2023-01-17T15:56:40.130Z,1.36
2023-01-17T15:57:40.420Z,1.29
2023-01-17T15:58:40.160Z,1.14
2023-01-17T15:59:40.223Z,1.32
2023-01-17T16:00:40.139Z,1.15
2023-01-17T16:01:40.287Z,1.15
2023-01-17T16:02:42.607Z,1.22
2023-01-17T16:03:40.116Z,1.11
